Terminal Aerodrome Forecast
Issued by NWS Pocatello, ID

Home | Current Version | Previous Version | Text Only | Print | Product List | Glossary On
Versions: 1 2 3 4 5 6 7 8 9 10 11 12 13 14 15 16 17 18 19 20 21
267
FTUS45 KPIH 200139 AAB
TAFPIH
TAF AMD
KPIH 200139Z 2002/2024 20011KT P6SM -SHRA SCT030 BKN070
     FM200800 20012KT P6SM VCSH SCT025 OVC040
      TEMPO 2010/2013 6SM -SHRASN BKN010 OVC025
     FM201600 18018G28KT P6SM VCSH SCT020 OVC050
     FM202100 18019G29KT 6SM -SHRA BKN010 OVC030=

USA.gov is the U.S. government's official web portal to all federal, state and local government web resources and services.